CCA0830 ZYTL-ZSAM
Flight info
| Callsign | CCA0830 |
|---|---|
| Flight time | N/A |
| Altitude | 32100 |
| Route | ARPI W5 TAO URBAD W172 LATUX W108 DUMET W114 LASAN W13 BEGMO W117 DST B221 LJG A470 ENVEN |
| Aircraft | A320/L-V/N |
Departure
| Time | 2026-05-04 08:28 |
|---|---|
| Airport | Dalian Zhoushuizi International Airport (ZYTL) |
Arrival
| Time | N/A |
|---|---|
| Airport | Xiamen Gaoqi International Airport (ZSAM) |
| Time | Latitude | Longitude | Altitude | Speed | Heading |
|---|---|---|---|---|---|
| 2026-05-04 08:05 | 38.96223 | 121.54186 | 115 ft | 0 kts | 182° |
| 2026-05-04 08:14 | 38.96228 | 121.54186 | 113 ft | 2 kts | 182° |
| 2026-05-04 08:16 | 38.96358 | 121.54161 | 111 ft | 2 kts | 105° |
| 2026-05-04 08:16 | 38.96360 | 121.54153 | 112 ft | 1 kts | 95° |
| 2026-05-04 08:19 | 38.96350 | 121.54281 | 115 ft | 10 kts | 96° |
| 2026-05-04 08:19 | 38.96342 | 121.54382 | 112 ft | 13 kts | 96° |
| 2026-05-04 08:20 | 38.96333 | 121.54497 | 115 ft | 11 kts | 96° |
| 2026-05-04 08:20 | 38.96325 | 121.54606 | 115 ft | 11 kts | 96° |
| 2026-05-04 08:20 | 38.96325 | 121.54611 | 115 ft | 0 kts | 96° |
| 2026-05-04 08:21 | 38.96324 | 121.54620 | 115 ft | 2 kts | 96° |
| 2026-05-04 08:21 | 38.96321 | 121.54656 | 115 ft | 5 kts | 96° |
| 2026-05-04 08:21 | 38.96317 | 121.54692 | 115 ft | 3 kts | 108° |
| 2026-05-04 08:22 | 38.96300 | 121.54712 | 114 ft | 5 kts | 147° |
| 2026-05-04 08:22 | 38.96265 | 121.54741 | 115 ft | 8 kts | 147° |
| 2026-05-04 08:24 | 38.96240 | 121.55401 | 114 ft | 18 kts | 96° |
| 2026-05-04 08:24 | 38.96232 | 121.55523 | 115 ft | 13 kts | 94° |
| 2026-05-04 08:24 | 38.96225 | 121.55621 | 112 ft | 12 kts | 96° |
| 2026-05-04 08:24 | 38.96238 | 121.55695 | 114 ft | 9 kts | 30° |
| 2026-05-04 08:25 | 38.96306 | 121.55707 | 114 ft | 10 kts | 5° |
| 2026-05-04 08:25 | 38.96310 | 121.55707 | 114 ft | 0 kts | 5° |
| 2026-05-04 08:25 | 38.96311 | 121.55707 | 114 ft | 1 kts | 5° |
| 2026-05-04 08:25 | 38.96327 | 121.55709 | 114 ft | 4 kts | 5° |
| 2026-05-04 08:26 | 38.96366 | 121.55713 | 114 ft | 7 kts | 5° |
| 2026-05-04 08:27 | 38.96652 | 121.52674 | 156 ft | 163 kts | 275° |
| 2026-05-04 08:28 | 38.96809 | 121.51208 | 509 ft | 168 kts | 276° |
| 2026-05-04 08:28 | 38.96988 | 121.49840 | 798 ft | 155 kts | 274° |
| 2026-05-04 08:28 | 38.97055 | 121.48553 | 905 ft | 157 kts | 270° |
| 2026-05-04 08:28 | 38.97094 | 121.47142 | 1445 ft | 153 kts | 268° |
| 2026-05-04 08:29 | 38.97154 | 121.45820 | 2287 ft | 155 kts | 272° |
| 2026-05-04 08:29 | 38.97235 | 121.44362 | 2772 ft | 176 kts | 274° |
| 2026-05-04 08:29 | 38.97348 | 121.42712 | 3297 ft | 197 kts | 274° |
| 2026-05-04 08:31 | 39.05302 | 121.37869 | 8894 ft | 259 kts | 39° |
| 2026-05-04 08:33 | 39.04739 | 121.55228 | 13843 ft | 319 kts | 127° |
| 2026-05-04 08:33 | 39.03071 | 121.57120 | 14531 ft | 323 kts | 151° |
| 2026-05-04 08:35 | 38.88894 | 121.50688 | 17941 ft | 378 kts | 215° |
| 2026-05-04 08:35 | 38.86662 | 121.48779 | 18264 ft | 390 kts | 214° |
| 2026-05-04 08:35 | 38.84381 | 121.46856 | 18808 ft | 394 kts | 214° |
| 2026-05-04 08:35 | 38.82112 | 121.44946 | 19370 ft | 397 kts | 214° |
| 2026-05-04 08:37 | 38.68035 | 121.33080 | 22504 ft | 419 kts | 214° |
| 2026-05-04 08:37 | 38.66608 | 121.31882 | 22807 ft | 422 kts | 214° |
| 2026-05-04 08:37 | 38.64177 | 121.29835 | 23296 ft | 426 kts | 215° |
| 2026-05-04 08:38 | 38.62041 | 121.28032 | 23695 ft | 429 kts | 215° |
| 2026-05-04 08:38 | 38.59854 | 121.26186 | 24108 ft | 430 kts | 215° |
| 2026-05-04 08:38 | 38.58542 | 121.25079 | 24368 ft | 431 kts | 215° |
| 2026-05-04 08:40 | 38.48207 | 121.11032 | 26594 ft | 436 kts | 236° |
| 2026-05-04 08:40 | 38.46705 | 121.08465 | 26945 ft | 437 kts | 236° |
| 2026-05-04 08:40 | 38.44902 | 121.05395 | 27354 ft | 439 kts | 236° |
| 2026-05-04 08:41 | 38.43145 | 121.02407 | 27715 ft | 441 kts | 236° |
| 2026-05-04 08:41 | 38.41299 | 120.99276 | 28109 ft | 443 kts | 235° |
| 2026-05-04 08:41 | 38.39442 | 120.96129 | 28480 ft | 445 kts | 236° |
| 2026-05-04 08:41 | 38.37581 | 120.92976 | 28843 ft | 447 kts | 236° |
| 2026-05-04 08:42 | 38.35708 | 120.89805 | 29195 ft | 448 kts | 236° |
| 2026-05-04 08:42 | 38.33824 | 120.86618 | 29538 ft | 450 kts | 236° |
| 2026-05-04 08:42 | 38.31939 | 120.83431 | 29873 ft | 452 kts | 236° |
| 2026-05-04 08:42 | 38.30041 | 120.80225 | 30183 ft | 454 kts | 236° |
| 2026-05-04 08:43 | 38.28179 | 120.77084 | 30476 ft | 455 kts | 236° |
| 2026-05-04 08:43 | 38.26060 | 120.73940 | 30760 ft | 460 kts | 227° |
| 2026-05-04 08:43 | 38.23619 | 120.71285 | 31042 ft | 464 kts | 218° |
| 2026-05-04 08:43 | 38.20874 | 120.69132 | 31374 ft | 467 kts | 209° |
| 2026-05-04 08:44 | 38.17951 | 120.67328 | 31749 ft | 467 kts | 208° |
| 2026-05-04 08:44 | 38.15027 | 120.65524 | 31949 ft | 466 kts | 208° |
| 2026-05-04 08:46 | 37.93884 | 120.56625 | 32098 ft | 470 kts | 185° |
| 2026-05-04 08:46 | 37.87392 | 120.56153 | 32099 ft | 469 kts | 185° |
| 2026-05-04 08:47 | 37.81048 | 120.55676 | 32097 ft | 469 kts | 185° |
| 2026-05-04 08:47 | 37.74545 | 120.55186 | 32099 ft | 468 kts | 186° |
| 2026-05-04 08:48 | 37.68047 | 120.54698 | 32102 ft | 468 kts | 186° |
| 2026-05-04 08:48 | 37.61630 | 120.53937 | 32104 ft | 466 kts | 189° |
| 2026-05-04 08:49 | 37.55602 | 120.53026 | 32102 ft | 466 kts | 189° |
| 2026-05-04 08:50 | 37.33093 | 120.49665 | 32104 ft | 464 kts | 190° |
| 2026-05-04 08:51 | 37.26716 | 120.48716 | 32108 ft | 464 kts | 190° |
| 2026-05-04 08:51 | 37.20404 | 120.47780 | 32108 ft | 464 kts | 190° |
| 2026-05-04 08:52 | 37.14001 | 120.46831 | 32108 ft | 463 kts | 190° |
| 2026-05-04 08:52 | 37.07604 | 120.45885 | 32113 ft | 462 kts | 190° |
| 2026-05-04 08:54 | 36.82124 | 120.42131 | 32120 ft | 461 kts | 190° |
| 2026-05-04 08:55 | 36.75761 | 120.41197 | 32121 ft | 461 kts | 190° |
| 2026-05-04 08:55 | 36.69505 | 120.40281 | 32125 ft | 460 kts | 190° |
| 2026-05-04 09:01 | 36.16311 | 120.45080 | 32160 ft | 477 kts | 155° |
| 2026-05-04 09:01 | 36.09148 | 120.48070 | 32160 ft | 468 kts | 174° |
| 2026-05-04 09:02 | 36.03857 | 120.48583 | 32170 ft | 464 kts | 181° |
| 2026-05-04 09:02 | 35.97407 | 120.49267 | 32172 ft | 468 kts | 173° |
| 2026-05-04 09:03 | 35.91232 | 120.51607 | 32172 ft | 475 kts | 159° |
| 2026-05-04 09:03 | 35.85203 | 120.54952 | 32174 ft | 475 kts | 159° |
| 2026-05-04 09:04 | 35.79404 | 120.58138 | 32178 ft | 475 kts | 159° |
| 2026-05-04 09:04 | 35.73470 | 120.61398 | 32174 ft | 476 kts | 157° |
| 2026-05-04 09:05 | 35.67678 | 120.65257 | 32180 ft | 478 kts | 154° |
| 2026-05-04 09:05 | 35.61892 | 120.69179 | 32182 ft | 478 kts | 154° |
| 2026-05-04 09:06 | 35.56260 | 120.72983 | 32178 ft | 477 kts | 154° |
| 2026-05-04 09:08 | 35.32226 | 120.86310 | 32185 ft | 474 kts | 161° |
| 2026-05-04 09:08 | 35.26227 | 120.89275 | 32185 ft | 474 kts | 161° |
| 2026-05-04 09:09 | 35.20101 | 120.92297 | 32183 ft | 474 kts | 161° |
| 2026-05-04 09:09 | 35.13991 | 120.95309 | 32190 ft | 474 kts | 161° |
| 2026-05-04 09:10 | 35.07870 | 120.98352 | 32189 ft | 474 kts | 161° |
| 2026-05-04 09:10 | 35.01794 | 121.01374 | 32186 ft | 474 kts | 161° |
| 2026-05-04 09:11 | 34.95688 | 121.04403 | 32185 ft | 474 kts | 161° |
| 2026-05-04 09:11 | 34.89572 | 121.07430 | 32185 ft | 474 kts | 161° |
| 2026-05-04 09:12 | 34.83512 | 121.10424 | 32188 ft | 474 kts | 161° |
| 2026-05-04 09:14 | 34.59406 | 121.22293 | 32194 ft | 473 kts | 162° |
| 2026-05-04 09:14 | 34.53459 | 121.25208 | 32192 ft | 473 kts | 162° |
| 2026-05-04 09:15 | 34.47566 | 121.28092 | 32197 ft | 473 kts | 162° |
| 2026-05-04 09:15 | 34.41534 | 121.31039 | 32196 ft | 473 kts | 162° |
| 2026-05-04 09:17 | 34.14476 | 121.44205 | 32196 ft | 471 kts | 163° |
| 2026-05-04 09:18 | 34.08421 | 121.47138 | 32198 ft | 471 kts | 163° |
| 2026-05-04 09:18 | 34.02419 | 121.50042 | 32201 ft | 471 kts | 163° |
| 2026-05-04 09:19 | 33.96350 | 121.52973 | 32198 ft | 471 kts | 163° |
| 2026-05-04 09:19 | 33.90252 | 121.55914 | 32203 ft | 471 kts | 164° |
| 2026-05-04 09:20 | 33.84182 | 121.58837 | 32202 ft | 471 kts | 164° |
| 2026-05-04 09:20 | 33.78142 | 121.61741 | 32201 ft | 470 kts | 164° |
| 2026-05-04 09:21 | 33.72298 | 121.64547 | 32199 ft | 470 kts | 164° |
| 2026-05-04 09:21 | 33.66225 | 121.67500 | 32198 ft | 470 kts | 164° |
| 2026-05-04 09:22 | 33.60172 | 121.70472 | 32202 ft | 469 kts | 164° |
| 2026-05-04 09:22 | 33.54143 | 121.73421 | 32202 ft | 469 kts | 164° |
| 2026-05-04 09:23 | 33.48263 | 121.76293 | 32200 ft | 468 kts | 164° |
| 2026-05-04 09:23 | 33.42300 | 121.79204 | 32205 ft | 468 kts | 165° |
| 2026-05-04 09:25 | 33.18267 | 121.90887 | 32205 ft | 466 kts | 166° |
| 2026-05-04 09:26 | 33.12384 | 121.93735 | 32207 ft | 466 kts | 166° |
| 2026-05-04 09:26 | 33.06389 | 121.96635 | 32205 ft | 465 kts | 166° |
| 2026-05-04 09:27 | 33.00448 | 121.99504 | 32207 ft | 465 kts | 166° |
| 2026-05-04 09:27 | 32.94452 | 122.02395 | 32207 ft | 464 kts | 167° |
| 2026-05-04 09:28 | 32.88462 | 122.05279 | 32207 ft | 463 kts | 167° |
| 2026-05-04 09:28 | 32.82531 | 122.08131 | 32209 ft | 463 kts | 167° |
| 2026-05-04 09:29 | 32.76571 | 122.10992 | 32204 ft | 462 kts | 168° |
| 2026-05-04 09:29 | 32.70609 | 122.13852 | 32205 ft | 461 kts | 168° |
| 2026-05-04 09:30 | 32.64835 | 122.16616 | 32206 ft | 460 kts | 168° |
| 2026-05-04 09:30 | 32.58897 | 122.19457 | 32207 ft | 459 kts | 168° |
| 2026-05-04 09:31 | 32.53073 | 122.22237 | 32206 ft | 459 kts | 169° |
| 2026-05-04 09:31 | 32.47155 | 122.25058 | 32206 ft | 458 kts | 169° |
| 2026-05-04 09:32 | 32.41227 | 122.27880 | 32208 ft | 458 kts | 169° |
| 2026-05-04 09:34 | 32.18078 | 122.38859 | 32209 ft | 456 kts | 170° |
| 2026-05-04 09:34 | 32.12292 | 122.41594 | 32209 ft | 456 kts | 170° |
| 2026-05-04 09:35 | 32.06399 | 122.44375 | 32207 ft | 456 kts | 170° |
| 2026-05-04 09:35 | 32.00584 | 122.47116 | 32211 ft | 456 kts | 170° |
| 2026-05-04 09:37 | 31.77149 | 122.58114 | 32209 ft | 455 kts | 170° |
| 2026-05-04 09:38 | 31.71325 | 122.60841 | 32210 ft | 455 kts | 170° |
| 2026-05-04 09:38 | 31.67399 | 122.62677 | 32210 ft | 455 kts | 170° |
| 2026-05-04 09:39 | 31.62289 | 122.65081 | 32213 ft | 456 kts | 169° |
| 2026-05-04 09:39 | 31.56753 | 122.67714 | 32208 ft | 456 kts | 169° |
| 2026-05-04 09:40 | 31.51283 | 122.70311 | 32214 ft | 456 kts | 169° |
| 2026-05-04 09:40 | 31.45593 | 122.73004 | 32216 ft | 457 kts | 169° |
| 2026-05-04 09:42 | 31.27119 | 122.68761 | 32200 ft | 381 kts | 226° |
| 2026-05-04 09:43 | 31.23089 | 122.64822 | 32212 ft | 381 kts | 226° |
| 2026-05-04 09:43 | 31.19199 | 122.61047 | 32214 ft | 382 kts | 226° |
| 2026-05-04 09:44 | 31.15724 | 122.57678 | 32215 ft | 382 kts | 226° |
| 2026-05-04 09:46 | 30.99818 | 122.43434 | 32209 ft | 401 kts | 210° |
| 2026-05-04 09:46 | 30.97115 | 122.42480 | 32211 ft | 413 kts | 201° |
| 2026-05-04 09:46 | 30.94276 | 122.42085 | 32213 ft | 425 kts | 193° |
| 2026-05-04 09:47 | 30.88665 | 122.41793 | 32213 ft | 425 kts | 193° |